createdAt,value
2019-02-12T00:00:24.694Z,3.24
2019-02-12T00:01:24.700Z,3.24
2019-02-12T00:02:24.707Z,3.26
2019-02-12T00:03:24.657Z,3.35
2019-02-12T00:04:24.639Z,3.33
2019-02-12T00:05:24.631Z,3.36
2019-02-12T00:06:24.693Z,3.33
2019-02-12T00:07:24.614Z,3.31
2019-02-12T00:08:24.610Z,3.35
2019-02-12T00:09:24.601Z,3.36
2019-02-12T00:10:24.584Z,3.35
2019-02-12T00:11:24.612Z,3.36
2019-02-12T00:12:24.635Z,3.36
2019-02-12T00:13:24.545Z,3.33
2019-02-12T00:14:24.547Z,3.24
2019-02-12T00:15:24.521Z,3.42
2019-02-12T00:16:24.514Z,3.32
2019-02-12T00:17:24.573Z,3.35
2019-02-12T00:18:24.507Z,3.39
2019-02-12T00:19:24.493Z,3.39
2019-02-12T00:20:24.489Z,3.29
2019-02-12T00:21:24.457Z,3.32
2019-02-12T00:22:24.450Z,3.33
2019-02-12T00:23:24.476Z,3.35
2019-02-12T00:24:24.476Z,3.29
2019-02-12T00:25:24.421Z,3.39
2019-02-12T00:26:24.428Z,3.39
2019-02-12T00:27:24.406Z,3.33
2019-02-12T00:28:24.442Z,3.35
2019-02-12T00:29:24.368Z,3.32
2019-02-12T00:30:24.401Z,3.33
2019-02-12T00:31:24.351Z,3.31
2019-02-12T00:32:24.336Z,3.31
2019-02-12T00:33:24.461Z,3.32
2019-02-12T00:34:24.330Z,3.40
2019-02-12T00:35:24.330Z,3.33
2019-02-12T00:36:24.297Z,3.40
2019-02-12T00:37:24.293Z,3.36
2019-02-12T00:38:24.273Z,3.32
2019-02-12T00:39:24.291Z,3.35
2019-02-12T00:40:24.275Z,3.39
2019-02-12T00:41:24.243Z,3.31
2019-02-12T00:42:24.233Z,3.32
2019-02-12T00:43:24.216Z,3.36
2019-02-12T00:44:24.243Z,3.40
2019-02-12T00:45:24.196Z,3.32
2019-02-12T00:46:24.198Z,3.26
2019-02-12T00:47:24.211Z,3.26
2019-02-12T00:48:24.170Z,3.17
2019-02-12T00:49:24.156Z,3.24
2019-02-12T00:50:24.147Z,3.20
2019-02-12T00:51:24.132Z,3.18
2019-02-12T00:52:24.214Z,3.26
2019-02-12T00:53:24.114Z,3.23
2019-02-12T00:54:24.319Z,3.26
2019-02-12T00:55:24.097Z,3.31
2019-02-12T00:56:24.079Z,3.32
2019-02-12T00:57:24.069Z,3.23
2019-02-12T00:58:24.135Z,3.28
2019-02-12T00:59:24.056Z,3.28
2019-02-12T01:00:24.052Z,3.28
2019-02-12T01:01:24.022Z,3.20
2019-02-12T01:02:24.017Z,3.18
2019-02-12T01:03:24.000Z,3.14
2019-02-12T01:04:24.017Z,3.20
2019-02-12T01:05:24.051Z,3.15
2019-02-12T01:06:23.966Z,3.20
2019-02-12T01:07:23.955Z,3.14
2019-02-12T01:08:23.952Z,3.21
2019-02-12T01:09:23.935Z,3.20
2019-02-12T01:10:23.959Z,3.10
2019-02-12T01:11:23.918Z,3.14
2019-02-12T01:12:23.908Z,3.11
2019-02-12T01:13:23.892Z,3.10
2019-02-12T01:14:23.923Z,3.11
2019-02-12T01:15:23.878Z,3.17
2019-02-12T01:16:23.887Z,3.02
2019-02-12T01:17:23.860Z,3.08
2019-02-12T01:18:23.841Z,3.10
2019-02-12T01:19:23.827Z,3.11
2019-02-12T01:20:23.873Z,2.99
2019-02-12T01:21:26.174Z,3.05
2019-02-12T01:22:23.798Z,3.02
2019-02-12T01:23:23.789Z,3.08
2019-02-12T01:24:23.777Z,3.03
2019-02-12T01:25:23.765Z,3.02
2019-02-12T01:26:23.791Z,3.10
2019-02-12T01:27:23.745Z,3.17
2019-02-12T01:28:23.732Z,3.15
2019-02-12T01:29:23.729Z,3.11
2019-02-12T01:30:23.794Z,3.05
2019-02-12T01:31:23.753Z,3.08
2019-02-12T01:32:23.715Z,3.15
2019-02-12T01:33:23.695Z,3.20
2019-02-12T01:34:23.708Z,3.05
2019-02-12T01:35:23.657Z,3.11
2019-02-12T01:36:23.643Z,3.05
2019-02-12T01:37:23.633Z,3.10
2019-02-12T01:38:23.648Z,3.13
2019-02-12T01:39:23.612Z,3.20
2019-02-12T01:40:23.619Z,3.21
2019-02-12T01:41:23.592Z,3.06
2019-02-12T01:42:23.703Z,3.06
2019-02-12T01:43:23.562Z,3.06
2019-02-12T01:44:23.564Z,3.08
2019-02-12T01:45:23.552Z,3.17
2019-02-12T01:46:23.541Z,3.20
2019-02-12T01:47:23.523Z,3.17
2019-02-12T01:48:23.535Z,3.20
2019-02-12T01:49:23.560Z,3.11
2019-02-12T01:50:23.495Z,3.20
2019-02-12T01:51:23.481Z,3.20
2019-02-12T01:52:23.479Z,3.05
2019-02-12T01:53:23.465Z,3.06
2019-02-12T01:54:23.454Z,3.18
2019-02-12T01:55:23.466Z,3.14
2019-02-12T01:56:23.432Z,3.17
2019-02-12T01:57:23.419Z,3.15
2019-02-12T01:58:23.402Z,3.17
2019-02-12T01:59:23.393Z,3.13
2019-02-12T02:00:23.405Z,3.13
2019-02-12T02:01:23.382Z,3.18
2019-02-12T02:02:23.365Z,3.20
2019-02-12T02:03:23.374Z,3.20
2019-02-12T02:04:23.394Z,3.23
2019-02-12T02:05:23.336Z,3.17
2019-02-12T02:06:23.348Z,3.20
2019-02-12T02:07:23.312Z,3.18
2019-02-12T02:08:23.315Z,3.21
2019-02-12T02:09:23.285Z,3.20
2019-02-12T02:10:23.276Z,3.15
2019-02-12T02:11:23.314Z,3.21
2019-02-12T02:12:23.256Z,3.28
2019-02-12T02:13:23.239Z,3.21
2019-02-12T02:14:23.244Z,3.18
2019-02-12T02:15:23.231Z,3.23
2019-02-12T02:16:23.218Z,3.24
2019-02-12T02:17:23.231Z,3.24
2019-02-12T02:18:23.190Z,3.21
2019-02-12T02:19:23.177Z,3.20
2019-02-12T02:20:23.169Z,3.18
2019-02-12T02:21:23.162Z,3.20
2019-02-12T02:22:23.185Z,3.20
2019-02-12T02:23:23.141Z,3.14
2019-02-12T02:24:23.127Z,3.20
2019-02-12T02:25:23.155Z,3.18
2019-02-12T02:26:23.105Z,3.21
2019-02-12T02:27:23.088Z,3.29
2019-02-12T02:28:23.082Z,3.31
2019-02-12T02:29:23.073Z,3.29
2019-02-12T02:30:23.065Z,3.29
2019-02-12T02:31:23.096Z,3.33
2019-02-12T02:32:23.060Z,3.29
2019-02-12T02:33:23.030Z,3.31
2019-02-12T02:34:23.037Z,3.32
2019-02-12T02:35:23.014Z,3.32
2019-02-12T02:36:23.029Z,3.31
2019-02-12T02:37:22.988Z,3.33
2019-02-12T02:38:22.977Z,3.33
2019-02-12T02:39:22.958Z,3.36
2019-02-12T02:40:22.949Z,3.35
2019-02-12T02:41:22.952Z,3.40
2019-02-12T02:42:22.952Z,3.32
2019-02-12T02:43:22.923Z,3.32
2019-02-12T02:44:22.915Z,3.31
2019-02-12T02:45:22.899Z,3.18
2019-02-12T02:46:22.895Z,3.20
2019-02-12T02:47:22.924Z,3.24
2019-02-12T02:48:22.865Z,3.15
2019-02-12T02:49:22.857Z,3.28
2019-02-12T02:50:22.848Z,3.31
2019-02-12T02:51:22.830Z,3.23
2019-02-12T02:52:22.826Z,3.26
2019-02-12T02:53:22.849Z,3.32
2019-02-12T02:54:22.836Z,3.29
2019-02-12T02:55:22.818Z,3.29
2019-02-12T02:56:22.787Z,3.35
2019-02-12T02:57:22.776Z,3.24
2019-02-12T02:58:22.756Z,3.26
2019-02-12T02:59:22.794Z,3.24
2019-02-12T03:00:22.758Z,3.17
2019-02-12T03:01:22.734Z,3.23
2019-02-12T03:02:22.716Z,3.26
2019-02-12T03:03:22.746Z,3.28
2019-02-12T03:04:22.697Z,3.15
2019-02-12T03:05:22.709Z,3.24
2019-02-12T03:06:22.691Z,3.15
2019-02-12T03:07:22.668Z,3.20
2019-02-12T03:08:22.649Z,3.20
2019-02-12T03:09:22.690Z,3.21
2019-02-12T03:10:22.623Z,3.23
2019-02-12T03:11:22.618Z,3.18
2019-02-12T03:12:22.610Z,3.28
2019-02-12T03:13:22.599Z,3.23
2019-02-12T03:14:22.627Z,3.29
2019-02-12T03:15:22.575Z,3.23
2019-02-12T03:16:22.559Z,3.18
2019-02-12T03:17:22.559Z,3.24
2019-02-12T03:18:22.547Z,3.21
2019-02-12T03:19:22.575Z,3.18
2019-02-12T03:20:22.560Z,3.13
2019-02-12T03:21:22.531Z,3.21
2019-02-12T03:22:22.514Z,3.18
2019-02-12T03:23:22.505Z,3.11
2019-02-12T03:24:22.484Z,3.20
2019-02-12T03:25:22.466Z,3.23
2019-02-12T03:26:22.498Z,3.32
2019-02-12T03:27:22.448Z,3.32
2019-02-12T03:28:22.433Z,3.32
2019-02-12T03:29:22.455Z,3.23
2019-02-12T03:30:22.417Z,3.28
2019-02-12T03:31:22.406Z,3.17
2019-02-12T03:32:22.433Z,3.18
2019-02-12T03:33:22.426Z,3.15
2019-02-12T03:34:22.371Z,3.11
2019-02-12T03:35:22.354Z,3.14
2019-02-12T03:36:22.375Z,3.03
2019-02-12T03:37:22.343Z,3.10
2019-02-12T03:38:22.331Z,3.14
2019-02-12T03:39:22.313Z,2.96
2019-02-12T03:40:22.299Z,2.99
2019-02-12T03:41:22.326Z,2.92
2019-02-12T03:42:22.293Z,2.92
2019-02-12T03:43:22.280Z,2.95
2019-02-12T03:44:22.313Z,3.03
2019-02-12T03:45:22.258Z,2.93
2019-02-12T03:46:22.251Z,2.99
2019-02-12T03:47:22.233Z,2.95
2019-02-12T03:48:22.247Z,2.93
2019-02-12T03:49:22.248Z,2.93
2019-02-12T03:50:22.200Z,2.84
2019-02-12T03:51:22.198Z,2.93
2019-02-12T03:52:22.204Z,2.84
2019-02-12T03:53:22.266Z,2.72
2019-02-12T03:54:22.154Z,2.79
2019-02-12T03:55:22.137Z,2.77
2019-02-12T03:56:22.128Z,2.84
2019-02-12T03:57:22.126Z,2.87
2019-02-12T03:58:22.104Z,2.84
2019-02-12T03:59:22.126Z,2.78
2019-02-12T04:00:22.085Z,2.78
2019-02-12T04:01:22.082Z,2.82
2019-02-12T04:02:22.064Z,2.77
2019-02-12T04:03:22.053Z,2.77
2019-02-12T04:04:22.079Z,2.81
2019-02-12T04:05:22.037Z,2.72
2019-02-12T04:06:22.022Z,2.81
2019-02-12T04:07:22.012Z,2.81
2019-02-12T04:08:22.002Z,2.74
2019-02-12T04:09:22.024Z,2.84
2019-02-12T04:10:21.982Z,2.89
2019-02-12T04:11:24.287Z,2.89
2019-02-12T04:12:22.007Z,2.90
2019-02-12T04:13:21.939Z,2.85
2019-02-12T04:14:21.940Z,2.82
2019-02-12T04:15:21.968Z,2.79
2019-02-12T04:16:21.912Z,2.81
2019-02-12T04:17:21.898Z,2.84
2019-02-12T04:18:21.890Z,2.72
2019-02-12T04:19:21.879Z,2.72
2019-02-12T04:20:21.863Z,2.78
2019-02-12T04:21:21.973Z,2.75
2019-02-12T04:22:23.024Z,2.78
2019-02-12T04:23:21.833Z,2.78
2019-02-12T04:24:21.820Z,2.79
2019-02-12T04:25:21.884Z,2.72
2019-02-12T04:26:21.803Z,2.66
2019-02-12T04:27:21.792Z,2.79
2019-02-12T04:28:21.786Z,2.82
2019-02-12T04:29:21.768Z,2.75
2019-02-12T04:30:21.767Z,2.74
2019-02-12T04:31:21.775Z,2.78
2019-02-12T04:32:21.842Z,2.84
2019-02-12T04:33:21.729Z,2.79
2019-02-12T04:34:21.799Z,2.72
2019-02-12T04:35:21.707Z,2.69
2019-02-12T04:36:21.691Z,2.78
2019-02-12T04:37:21.681Z,2.75
2019-02-12T04:38:21.706Z,2.79
2019-02-12T04:39:21.661Z,2.85
2019-02-12T04:40:21.657Z,2.82
2019-02-12T04:41:21.642Z,2.78
2019-02-12T04:42:21.627Z,2.89
2019-02-12T04:43:21.705Z,2.78
2019-02-12T04:44:21.647Z,2.84
2019-02-12T04:45:21.593Z,2.82
2019-02-12T04:46:21.584Z,2.85
2019-02-12T04:47:21.577Z,2.85
2019-02-12T04:48:21.563Z,2.81
2019-02-12T04:49:21.600Z,2.85
2019-02-12T04:50:21.545Z,2.89
2019-02-12T04:51:21.538Z,2.84
2019-02-12T04:52:21.519Z,2.81
2019-02-12T04:53:21.499Z,2.87
2019-02-12T04:54:21.531Z,2.84
2019-02-12T04:55:21.503Z,2.87
2019-02-12T04:56:21.477Z,2.81
2019-02-12T04:57:21.475Z,2.79
2019-02-12T04:58:21.454Z,2.81
2019-02-12T04:59:21.437Z,2.84
2019-02-12T05:00:21.453Z,2.71
2019-02-12T05:01:21.444Z,2.84
2019-02-12T05:02:21.417Z,2.79
2019-02-12T05:03:21.392Z,2.75
2019-02-12T05:04:21.381Z,2.84
2019-02-12T05:05:21.405Z,2.78
2019-02-12T05:06:21.376Z,2.74
2019-02-12T05:07:21.408Z,2.72
2019-02-12T05:08:21.344Z,2.78
2019-02-12T05:09:21.325Z,2.82
2019-02-12T05:10:21.327Z,2.77
2019-02-12T05:11:21.335Z,2.81
2019-02-12T05:12:21.299Z,2.89
2019-02-12T05:13:21.340Z,2.87
2019-02-12T05:14:21.280Z,2.87
2019-02-12T05:15:21.274Z,2.77
2019-02-12T05:16:21.259Z,2.87
2019-02-12T05:17:21.257Z,2.95
2019-02-12T05:18:21.287Z,2.95
2019-02-12T05:19:21.213Z,2.81
2019-02-12T05:20:21.207Z,2.89
2019-02-12T05:21:21.192Z,2.93
2019-02-12T05:22:21.200Z,2.93
2019-02-12T05:23:21.241Z,2.87
2019-02-12T05:24:21.242Z,2.92
2019-02-12T05:25:21.152Z,2.90
2019-02-12T05:26:21.138Z,2.87
2019-02-12T05:27:21.129Z,2.82
2019-02-12T05:28:21.122Z,2.84
2019-02-12T05:29:21.147Z,2.85
2019-02-12T05:30:21.136Z,2.79
2019-02-12T05:31:21.084Z,2.84
2019-02-12T05:32:21.119Z,2.79
2019-02-12T05:33:21.074Z,2.79
2019-02-12T05:34:21.064Z,2.89
2019-02-12T05:35:21.075Z,2.84
2019-02-12T05:36:21.036Z,2.85
2019-02-12T05:37:21.021Z,2.84
2019-02-12T05:38:21.105Z,2.90
2019-02-12T05:39:21.002Z,2.90
2019-02-12T05:40:20.998Z,2.92
2019-02-12T05:41:20.985Z,2.93
2019-02-12T05:42:20.979Z,2.99
2019-02-12T05:43:20.972Z,2.82
2019-02-12T05:44:20.991Z,2.93
2019-02-12T05:45:20.930Z,2.97
2019-02-12T05:46:20.924Z,2.95
2019-02-12T05:47:20.917Z,2.99
2019-02-12T05:48:20.906Z,2.92
2019-02-12T05:49:20.891Z,3.05
2019-02-12T05:50:20.907Z,3.03
2019-02-12T05:51:20.871Z,3.02
2019-02-12T05:52:20.859Z,3.06
2019-02-12T05:53:20.875Z,3.11
2019-02-12T05:54:20.835Z,3.08
2019-02-12T05:55:20.822Z,3.13
2019-02-12T05:56:20.828Z,3.15
2019-02-12T05:57:20.849Z,3.08
2019-02-12T05:58:20.795Z,3.11
2019-02-12T05:59:20.817Z,3.10
2019-02-12T06:00:20.799Z,3.11
2019-02-12T06:01:20.763Z,3.18
2019-02-12T06:02:20.765Z,3.08
2019-02-12T06:03:20.749Z,3.18
2019-02-12T06:04:20.793Z,3.17
2019-02-12T06:05:20.717Z,3.06
2019-02-12T06:06:20.703Z,3.21
2019-02-12T06:07:20.692Z,3.20
2019-02-12T06:08:20.681Z,3.15
2019-02-12T06:09:20.670Z,3.20
2019-02-12T06:10:20.692Z,3.21
2019-02-12T06:11:20.687Z,3.18
2019-02-12T06:12:20.640Z,3.21
2019-02-12T06:13:20.633Z,3.17
2019-02-12T06:14:20.654Z,3.14
2019-02-12T06:15:20.641Z,3.20
2019-02-12T06:16:20.596Z,3.28
2019-02-12T06:17:20.590Z,3.17
2019-02-12T06:18:20.573Z,3.20
2019-02-12T06:19:20.568Z,3.23
2019-02-12T06:20:20.581Z,3.20
2019-02-12T06:21:20.613Z,3.17
2019-02-12T06:22:20.535Z,3.28
2019-02-12T06:23:20.535Z,3.26
2019-02-12T06:24:20.515Z,3.21
2019-02-12T06:25:20.510Z,3.18
2019-02-12T06:26:20.517Z,3.26
2019-02-12T06:27:20.476Z,3.23
2019-02-12T06:28:20.480Z,3.20
2019-02-12T06:29:20.466Z,3.21
2019-02-12T06:30:20.466Z,3.26
2019-02-12T06:31:20.593Z,3.29
2019-02-12T06:32:20.418Z,3.33
2019-02-12T06:33:20.418Z,3.21
2019-02-12T06:34:20.402Z,3.23
2019-02-12T06:35:20.386Z,3.18
2019-02-12T06:36:20.376Z,3.24
2019-02-12T06:37:20.397Z,3.23
2019-02-12T06:38:20.426Z,3.31
2019-02-12T06:39:20.369Z,3.33
2019-02-12T06:40:20.357Z,3.26
2019-02-12T06:41:20.320Z,3.29
2019-02-12T06:42:20.332Z,3.23
2019-02-12T06:43:20.367Z,3.20
2019-02-12T06:44:20.300Z,3.39
2019-02-12T06:45:20.288Z,3.28
2019-02-12T06:46:20.332Z,3.31
2019-02-12T06:47:20.265Z,3.39
2019-02-12T06:48:20.251Z,3.35
2019-02-12T06:49:20.281Z,3.33
2019-02-12T06:50:20.235Z,3.31
2019-02-12T06:51:20.220Z,3.35
2019-02-12T06:52:20.208Z,3.31
2019-02-12T06:53:20.192Z,3.32
2019-02-12T06:54:20.186Z,3.35
2019-02-12T06:55:20.226Z,3.42
2019-02-12T06:56:20.167Z,3.47
2019-02-12T06:57:20.153Z,3.35
2019-02-12T06:58:20.182Z,3.33
2019-02-12T06:59:20.129Z,3.24
2019-02-12T07:00:20.118Z,3.26
2019-02-12T07:01:20.129Z,3.28
2019-02-12T07:02:20.106Z,3.31
2019-02-12T07:03:20.116Z,3.36
2019-02-12T07:04:20.175Z,3.35
2019-02-12T07:05:20.066Z,3.40
2019-02-12T07:06:20.060Z,3.45
2019-02-12T07:07:20.051Z,3.47
2019-02-12T07:08:20.065Z,3.45
2019-02-12T07:09:20.023Z,3.57
2019-02-12T07:10:20.011Z,3.51
2019-02-12T07:11:20.022Z,3.45
2019-02-12T07:12:19.986Z,3.50
2019-02-12T07:13:19.980Z,3.39
2019-02-12T07:14:19.963Z,3.43
2019-02-12T07:15:20.015Z,3.47
2019-02-12T07:16:19.986Z,3.43
2019-02-12T07:17:19.933Z,3.55
2019-02-12T07:18:19.957Z,3.51
2019-02-12T07:19:19.908Z,3.47
2019-02-12T07:20:19.903Z,3.31
2019-02-12T07:21:19.967Z,3.36
2019-02-12T07:22:19.882Z,3.45
2019-02-12T07:23:21.584Z,3.50
2019-02-12T07:24:19.897Z,3.48
2019-02-12T07:25:19.853Z,3.51
2019-02-12T07:26:19.839Z,3.58
2019-02-12T07:27:19.853Z,3.50
2019-02-12T07:28:19.812Z,3.54
2019-02-12T07:29:19.948Z,3.58
2019-02-12T07:30:19.791Z,3.55
2019-02-12T07:31:19.824Z,3.51
2019-02-12T07:32:19.796Z,3.50
2019-02-12T07:33:19.761Z,3.47
2019-02-12T07:34:19.759Z,3.57
2019-02-12T07:35:19.755Z,3.57
2019-02-12T07:36:19.745Z,3.52
2019-02-12T07:37:19.775Z,3.57
2019-02-12T07:38:19.700Z,3.45
2019-02-12T07:39:19.692Z,3.50
2019-02-12T07:40:19.676Z,3.45
2019-02-12T07:41:20.588Z,3.51
2019-02-12T07:42:19.707Z,3.47
2019-02-12T07:43:19.644Z,3.43
2019-02-12T07:44:19.636Z,3.54
2019-02-12T07:45:19.700Z,3.51
2019-02-12T07:46:19.659Z,3.55
2019-02-12T07:47:19.601Z,3.58
2019-02-12T07:48:19.591Z,3.69
2019-02-12T07:49:19.592Z,3.72
2019-02-12T07:50:19.568Z,3.62
2019-02-12T07:51:19.582Z,3.78
2019-02-12T07:52:19.556Z,3.69
2019-02-12T07:53:19.564Z,3.68
2019-02-12T07:54:19.525Z,3.72
2019-02-12T07:55:19.520Z,3.69
2019-02-12T07:56:19.499Z,3.75
2019-02-12T07:57:19.518Z,3.66
2019-02-12T07:58:19.530Z,3.73
2019-02-12T07:59:19.470Z,3.69
2019-02-12T08:00:19.463Z,3.69
2019-02-12T08:01:19.450Z,3.75
2019-02-12T08:02:19.439Z,3.65
2019-02-12T08:03:19.453Z,3.57
2019-02-12T08:04:19.465Z,3.69
2019-02-12T08:05:19.407Z,3.73
2019-02-12T08:06:19.448Z,3.52
2019-02-12T08:07:19.401Z,3.48
2019-02-12T08:08:19.394Z,3.50
2019-02-12T08:09:19.355Z,3.48
2019-02-12T08:10:19.345Z,3.45
2019-02-12T08:11:19.339Z,3.54
2019-02-12T08:12:19.405Z,3.51
2019-02-12T08:13:19.343Z,3.57
2019-02-12T08:14:19.299Z,3.58
2019-02-12T08:15:19.296Z,3.50
2019-02-12T08:16:19.282Z,3.61
2019-02-12T08:17:19.301Z,3.58
2019-02-12T08:18:19.263Z,3.52
2019-02-12T08:19:19.290Z,3.57
2019-02-12T08:20:19.246Z,3.57
2019-02-12T08:21:19.236Z,3.58
2019-02-12T08:22:19.258Z,3.47
2019-02-12T08:23:19.216Z,3.45
2019-02-12T08:24:19.264Z,3.42
2019-02-12T08:25:19.209Z,3.43
2019-02-12T08:26:19.193Z,3.50
2019-02-12T08:27:19.160Z,3.48
2019-02-12T08:28:19.187Z,3.51
2019-02-12T08:29:19.135Z,3.52
2019-02-12T08:30:19.125Z,3.51
2019-02-12T08:31:19.136Z,3.62
2019-02-12T08:32:19.104Z,3.58
2019-02-12T08:33:19.103Z,3.50
2019-02-12T08:34:19.084Z,3.52
2019-02-12T08:35:19.162Z,3.55
2019-02-12T08:36:19.170Z,3.66
2019-02-12T08:37:19.058Z,3.69
2019-02-12T08:38:19.037Z,3.66
2019-02-12T08:39:19.074Z,3.55
2019-02-12T08:40:19.021Z,3.51
2019-02-12T08:41:19.043Z,3.62
2019-02-12T08:42:19.062Z,3.57
2019-02-12T08:43:18.996Z,3.51
2019-02-12T08:44:18.971Z,3.73
2019-02-12T08:45:18.985Z,3.60
2019-02-12T08:46:18.954Z,3.54
2019-02-12T08:47:18.936Z,3.69
2019-02-12T08:48:18.963Z,3.72
2019-02-12T08:49:18.927Z,3.69
2019-02-12T08:50:18.918Z,3.76
2019-02-12T08:51:18.894Z,3.76
2019-02-12T08:52:18.881Z,3.87
2019-02-12T08:53:18.924Z,3.83
2019-02-12T08:54:18.876Z,3.94
2019-02-12T08:55:18.848Z,3.91
2019-02-12T08:56:18.842Z,3.93
2019-02-12T08:57:18.837Z,3.88
2019-02-12T08:58:18.831Z,3.90
2019-02-12T08:59:18.866Z,4.00
2019-02-12T09:00:18.801Z,4.06
2019-02-12T09:01:18.788Z,4.00
2019-02-12T09:02:18.787Z,4.06
2019-02-12T09:03:18.762Z,4.14
2019-02-12T09:04:18.758Z,4.11
2019-02-12T09:05:18.776Z,4.18
2019-02-12T09:06:18.732Z,4.11
2019-02-12T09:07:18.719Z,4.08
2019-02-12T09:08:18.712Z,4.08
2019-02-12T09:09:18.698Z,4.06
2019-02-12T09:10:18.716Z,4.04
2019-02-12T09:11:18.677Z,4.00
2019-02-12T09:12:18.663Z,3.96
2019-02-12T09:13:18.657Z,4.00
2019-02-12T09:14:18.648Z,4.11
2019-02-12T09:15:18.674Z,4.15
2019-02-12T09:16:18.708Z,4.29
2019-02-12T09:17:18.611Z,4.26
2019-02-12T09:18:18.613Z,4.32
2019-02-12T09:19:18.602Z,4.20
2019-02-12T09:20:18.661Z,4.32
2019-02-12T09:21:18.579Z,4.26
2019-02-12T09:22:18.558Z,4.27
2019-02-12T09:23:18.545Z,4.22
2019-02-12T09:24:18.539Z,4.18
2019-02-12T09:25:18.612Z,4.16
2019-02-12T09:26:18.569Z,4.11
2019-02-12T09:27:18.507Z,4.29
2019-02-12T09:28:18.490Z,4.23
2019-02-12T09:29:18.490Z,4.23
2019-02-12T09:30:18.491Z,4.14
2019-02-12T09:31:18.517Z,4.15
2019-02-12T09:32:18.461Z,4.08
2019-02-12T09:33:18.439Z,4.16
2019-02-12T09:34:18.466Z,4.15
2019-02-12T09:35:18.412Z,4.06
2019-02-12T09:36:18.417Z,4.16
2019-02-12T09:37:18.455Z,4.26
2019-02-12T09:38:18.386Z,4.30
2019-02-12T09:39:18.395Z,4.26
2019-02-12T09:40:19.464Z,4.32
2019-02-12T09:41:18.353Z,4.33
2019-02-12T09:42:18.378Z,4.42
2019-02-12T09:43:18.373Z,4.40
2019-02-12T09:44:18.362Z,4.47
2019-02-12T09:45:18.310Z,4.45
2019-02-12T09:46:18.303Z,4.48
2019-02-12T09:47:18.327Z,4.42
2019-02-12T09:48:18.289Z,4.60
2019-02-12T09:49:18.293Z,4.47
2019-02-12T09:50:18.264Z,4.55
2019-02-12T09:51:18.258Z,4.63
2019-02-12T09:52:18.254Z,4.52
2019-02-12T09:53:18.220Z,4.52
2019-02-12T09:54:18.275Z,4.50
2019-02-12T09:55:18.204Z,4.58
2019-02-12T09:56:18.186Z,4.58
2019-02-12T09:57:18.195Z,4.59
2019-02-12T09:58:18.195Z,4.54
2019-02-12T09:59:18.165Z,4.62
2019-02-12T10:00:18.143Z,4.63
2019-02-12T10:01:18.153Z,4.69
2019-02-12T10:02:18.122Z,4.77
2019-02-12T10:03:18.111Z,4.78
2019-02-12T10:04:18.150Z,4.77
2019-02-12T10:05:18.094Z,4.82
2019-02-12T10:06:21.997Z,4.94
2019-02-12T10:07:19.066Z,4.75
2019-02-12T10:08:18.062Z,4.84
2019-02-12T10:09:18.080Z,4.92
2019-02-12T10:10:18.085Z,4.91
2019-02-12T10:11:18.034Z,4.94
2019-02-12T10:12:18.022Z,4.86
2019-02-12T10:13:18.012Z,4.85
2019-02-12T10:14:17.996Z,5.03
2019-02-12T10:15:18.005Z,5.02
2019-02-12T10:16:18.018Z,4.91
2019-02-12T10:17:17.967Z,4.96
2019-02-12T10:18:17.946Z,4.96
2019-02-12T10:19:17.933Z,4.91
2019-02-12T10:20:17.926Z,4.78
2019-02-12T10:21:17.915Z,4.89
2019-02-12T10:22:17.950Z,4.92
2019-02-12T10:23:17.889Z,4.88
2019-02-12T10:24:19.946Z,4.99
2019-02-12T10:25:17.881Z,5.03
2019-02-12T10:26:17.856Z,5.02
2019-02-12T10:27:17.845Z,5.02
2019-02-12T10:28:17.879Z,4.97
2019-02-12T10:29:17.836Z,5.04
2019-02-12T10:30:17.833Z,5.04
2019-02-12T10:31:17.805Z,4.96
2019-02-12T10:32:17.789Z,4.91
2019-02-12T10:33:17.801Z,4.89
2019-02-12T10:34:17.769Z,4.99
2019-02-12T10:35:17.758Z,4.99
2019-02-12T10:36:17.746Z,5.07
2019-02-12T10:37:18.142Z,5.15
2019-02-12T10:38:17.797Z,5.18
2019-02-12T10:39:17.730Z,5.36
2019-02-12T10:40:17.738Z,5.49
2019-02-12T10:41:17.735Z,5.54
2019-02-12T10:42:17.674Z,5.57
2019-02-12T10:43:17.676Z,5.57
2019-02-12T10:44:17.715Z,5.60
2019-02-12T10:45:17.641Z,5.60
2019-02-12T10:46:17.636Z,5.54
2019-02-12T10:47:17.707Z,5.48
2019-02-12T10:48:18.067Z,5.40
2019-02-12T10:49:17.601Z,5.33
2019-02-12T10:50:17.609Z,5.28
2019-02-12T10:51:17.581Z,5.25
2019-02-12T10:52:17.583Z,5.33
2019-02-12T10:53:17.554Z,5.39
2019-02-12T10:54:17.596Z,5.42
2019-02-12T10:55:17.539Z,5.53
2019-02-12T10:56:17.525Z,5.56
2019-02-12T10:57:17.539Z,5.51
2019-02-12T10:58:17.517Z,5.61
2019-02-12T10:59:17.502Z,5.53
2019-02-12T11:00:17.510Z,5.49
2019-02-12T11:01:17.478Z,5.53
2019-02-12T11:02:17.483Z,5.46
2019-02-12T11:03:17.454Z,5.51
2019-02-12T11:04:17.442Z,5.58
2019-02-12T11:05:17.465Z,5.48
2019-02-12T11:06:17.425Z,5.57
2019-02-12T11:07:17.413Z,5.68
2019-02-12T11:08:17.394Z,5.68
2019-02-12T11:09:17.395Z,5.82
2019-02-12T11:10:17.410Z,5.85
2019-02-12T11:11:17.364Z,5.89
2019-02-12T11:12:17.350Z,5.86
2019-02-12T11:13:17.351Z,5.97
2019-02-12T11:14:17.333Z,5.85
2019-02-12T11:15:17.376Z,5.85
2019-02-12T11:16:17.333Z,5.85
2019-02-12T11:17:17.308Z,5.86
2019-02-12T11:18:17.293Z,5.83
2019-02-12T11:19:17.282Z,5.83
2019-02-12T11:20:17.287Z,5.83
2019-02-12T11:21:17.282Z,5.85
2019-02-12T11:22:17.306Z,5.85
2019-02-12T11:23:17.238Z,5.82
2019-02-12T11:24:17.231Z,5.78
2019-02-12T11:25:17.270Z,5.79
2019-02-12T11:26:17.236Z,5.82
2019-02-12T11:27:17.342Z,5.85
2019-02-12T11:28:17.191Z,5.81
2019-02-12T11:29:17.173Z,5.86
2019-02-12T11:30:17.179Z,5.82
2019-02-12T11:31:17.158Z,5.96
2019-02-12T11:32:17.167Z,5.86
2019-02-12T11:33:17.132Z,5.89
2019-02-12T11:34:17.124Z,6.04
2019-02-12T11:35:17.103Z,6.03
2019-02-12T11:36:17.159Z,5.93
2019-02-12T11:37:17.119Z,5.89
2019-02-12T11:38:17.080Z,5.85
2019-02-12T11:39:17.067Z,5.79
2019-02-12T11:40:17.098Z,5.74
2019-02-12T11:41:17.045Z,5.71
2019-02-12T11:42:17.102Z,5.68
2019-02-12T11:43:17.023Z,5.58
2019-02-12T11:44:17.015Z,5.51
2019-02-12T11:45:17.004Z,5.53
2019-02-12T11:46:16.993Z,5.43
2019-02-12T11:47:16.984Z,5.38
2019-02-12T11:48:17.966Z,5.28
2019-02-12T11:49:16.958Z,5.25
2019-02-12T11:50:16.968Z,5.22
2019-02-12T11:51:16.949Z,5.25
2019-02-12T11:52:16.940Z,5.27
2019-02-12T11:53:16.924Z,5.31
2019-02-12T11:54:16.959Z,5.24
2019-02-12T11:55:16.893Z,5.33
2019-02-12T11:56:16.882Z,5.30
2019-02-12T11:57:16.872Z,5.42
2019-02-12T11:58:16.870Z,5.38
2019-02-12T11:59:16.848Z,5.38
2019-02-12T12:00:16.867Z,5.31
2019-02-12T12:01:16.826Z,5.38
2019-02-12T12:02:16.823Z,5.25
2019-02-12T12:03:16.874Z,5.35
2019-02-12T12:04:16.820Z,5.25
2019-02-12T12:05:16.830Z,5.31
2019-02-12T12:06:16.772Z,5.24
2019-02-12T12:07:16.761Z,5.25
2019-02-12T12:08:16.768Z,5.25
2019-02-12T12:09:16.780Z,5.35
2019-02-12T12:10:16.764Z,5.36
2019-02-12T12:11:16.711Z,5.43
2019-02-12T12:12:16.699Z,5.46
2019-02-12T12:13:16.695Z,5.39
2019-02-12T12:14:16.708Z,5.51
2019-02-12T12:15:16.702Z,5.51
2019-02-12T12:16:16.688Z,5.51
2019-02-12T12:17:16.662Z,5.51
2019-02-12T12:18:16.665Z,5.49
2019-02-12T12:19:16.712Z,5.53
2019-02-12T12:20:16.653Z,5.49
2019-02-12T12:21:16.604Z,5.64
2019-02-12T12:22:16.595Z,5.61
2019-02-12T12:23:16.581Z,5.64
2019-02-12T12:24:16.573Z,5.74
2019-02-12T12:25:16.632Z,5.71
2019-02-12T12:26:16.568Z,5.61
2019-02-12T12:27:16.540Z,5.61
2019-02-12T12:28:16.539Z,5.56
2019-02-12T12:29:16.516Z,5.54
2019-02-12T12:30:16.510Z,5.58
2019-02-12T12:31:16.534Z,5.58
2019-02-12T12:32:16.494Z,5.64
2019-02-12T12:33:16.469Z,5.65
2019-02-12T12:34:16.454Z,5.60
2019-02-12T12:35:16.448Z,5.58
2019-02-12T12:36:16.471Z,5.51
2019-02-12T12:37:16.491Z,5.51
2019-02-12T12:38:16.412Z,5.45
2019-02-12T12:39:16.401Z,5.53
2019-02-12T12:40:16.397Z,5.51
2019-02-12T12:41:16.470Z,5.49
2019-02-12T12:42:16.424Z,5.43
2019-02-12T12:43:16.364Z,5.39
2019-02-12T12:44:16.346Z,5.54
2019-02-12T12:45:16.340Z,5.56
2019-02-12T12:46:16.322Z,5.46
2019-02-12T12:47:16.365Z,5.46
2019-02-12T12:48:16.315Z,5.48
2019-02-12T12:49:16.348Z,5.49
2019-02-12T12:50:16.316Z,5.53
2019-02-12T12:51:16.312Z,5.45
2019-02-12T12:52:16.260Z,5.53
2019-02-12T12:53:16.291Z,5.53
2019-02-12T12:54:16.239Z,5.48
2019-02-12T12:55:16.225Z,5.53
2019-02-12T12:56:16.231Z,5.49
2019-02-12T12:57:16.202Z,5.56
2019-02-12T12:58:16.255Z,5.45
2019-02-12T12:59:16.191Z,5.35
2019-02-12T13:00:16.200Z,5.42
2019-02-12T13:01:16.186Z,5.33
2019-02-12T13:02:16.157Z,5.33
2019-02-12T13:03:16.147Z,5.35
2019-02-12T13:04:16.140Z,5.46
2019-02-12T13:05:16.140Z,5.38
2019-02-12T13:06:16.110Z,5.36
2019-02-12T13:07:16.103Z,5.46
2019-02-12T13:08:16.156Z,5.49
2019-02-12T13:09:16.076Z,5.43
2019-02-12T13:10:16.068Z,5.57
2019-02-12T13:11:16.058Z,5.54
2019-02-12T13:12:16.056Z,5.63
2019-02-12T13:13:16.974Z,5.54
2019-02-12T13:14:16.044Z,5.64
2019-02-12T13:15:16.004Z,5.57
2019-02-12T13:16:16.009Z,5.63
2019-02-12T13:17:16.001Z,5.58
2019-02-12T13:18:15.981Z,5.58